createdAt,value
2019-05-19T00:02:04.387Z,62.00
2019-05-19T00:04:32.003Z,61.90
2019-05-19T00:06:59.633Z,62.20
2019-05-19T00:09:27.387Z,61.50
2019-05-19T00:11:55.000Z,61.90
2019-05-19T00:14:22.635Z,61.90
2019-05-19T00:16:50.267Z,61.90
2019-05-19T00:19:26.407Z,61.80
2019-05-19T00:21:47.580Z,61.60
2019-05-19T00:24:15.234Z,61.50
2019-05-19T00:26:42.872Z,61.60
2019-05-19T00:29:11.740Z,61.70
2019-05-19T00:31:39.470Z,61.50
2019-05-19T00:34:07.249Z,61.60
2019-05-19T00:36:34.932Z,61.60
2019-05-19T00:39:03.965Z,62.00
2019-05-19T00:41:33.703Z,61.90
2019-05-19T00:44:01.750Z,61.90
2019-05-19T00:46:29.463Z,61.80
2019-05-19T00:48:57.115Z,62.10
2019-05-19T00:51:24.733Z,62.10
2019-05-19T00:53:52.397Z,62.10
2019-05-19T00:56:20.553Z,62.30
2019-05-19T00:58:49.551Z,62.20
2019-05-19T01:01:17.270Z,62.90
2019-05-19T01:03:44.889Z,62.20
2019-05-19T01:06:15.419Z,62.20
2019-05-19T01:08:43.171Z,62.30
2019-05-19T01:11:10.802Z,62.40
2019-05-19T01:13:38.435Z,62.40
2019-05-19T01:16:06.117Z,63.50
2019-05-19T01:18:34.963Z,62.90
2019-05-19T01:21:02.649Z,62.60
2019-05-19T01:23:30.276Z,62.80
2019-05-19T01:25:59.177Z,62.50
2019-05-19T01:28:26.777Z,62.70
2019-05-19T01:30:54.421Z,62.70
2019-05-19T01:33:22.089Z,62.50
2019-05-19T01:35:49.726Z,62.30
2019-05-19T01:38:17.366Z,62.40
2019-05-19T01:40:46.104Z,62.70
2019-05-19T01:43:13.726Z,62.60
2019-05-19T01:45:41.400Z,62.60
2019-05-19T01:48:10.149Z,63.00
2019-05-19T01:50:37.798Z,63.10
2019-05-19T01:53:05.545Z,62.90
2019-05-19T01:55:34.986Z,62.80
2019-05-19T01:58:02.630Z,63.20
2019-05-19T02:00:30.248Z,63.50
2019-05-19T02:02:57.902Z,63.30
2019-05-19T02:05:25.612Z,63.30
2019-05-19T02:07:53.270Z,63.50
2019-05-19T02:10:21.081Z,63.40
2019-05-19T02:12:50.509Z,63.20
2019-05-19T02:15:19.247Z,63.20
2019-05-19T02:17:46.952Z,62.90
2019-05-19T02:20:14.984Z,62.80
2019-05-19T02:22:42.828Z,63.80
2019-05-19T02:25:10.615Z,62.90
2019-05-19T02:27:38.269Z,63.00
2019-05-19T02:30:06.941Z,63.10
2019-05-19T02:32:34.885Z,62.90
2019-05-19T02:35:02.594Z,62.80
2019-05-19T02:37:30.218Z,63.10
2019-05-19T02:39:57.875Z,63.20
2019-05-19T02:42:28.397Z,63.30
2019-05-19T02:44:58.664Z,63.10
2019-05-19T02:47:27.401Z,62.80
2019-05-19T02:49:57.232Z,62.70
2019-05-19T02:52:27.607Z,62.50
2019-05-19T02:54:55.853Z,62.50
2019-05-19T02:57:23.598Z,62.50
2019-05-19T02:59:51.887Z,62.80
2019-05-19T03:02:19.544Z,62.70
2019-05-19T03:04:47.269Z,62.80
2019-05-19T03:07:15.023Z,62.50
2019-05-19T03:09:42.652Z,62.70
2019-05-19T03:12:10.406Z,62.70
2019-05-19T03:14:38.040Z,62.60
2019-05-19T03:17:05.833Z,62.60
2019-05-19T03:19:33.471Z,62.90
2019-05-19T03:22:01.101Z,63.10
2019-05-19T03:24:30.324Z,63.30
2019-05-19T03:26:57.985Z,63.30
2019-05-19T03:29:30.845Z,63.60
2019-05-19T03:32:14.525Z,64.40
2019-05-19T03:34:54.301Z,63.90
2019-05-19T03:37:21.972Z,64.00
2019-05-19T03:39:49.615Z,64.40
2019-05-19T03:42:17.358Z,64.20
2019-05-19T03:44:45.096Z,64.30
2019-05-19T03:47:12.758Z,64.30
2019-05-19T03:49:40.437Z,64.30
2019-05-19T03:52:08.191Z,64.40
2019-05-19T03:54:36.908Z,64.60
2019-05-19T03:57:04.543Z,64.60
2019-05-19T03:59:32.216Z,64.50
2019-05-19T04:01:59.902Z,64.70
2019-05-19T04:04:27.653Z,65.20
2019-05-19T04:06:56.414Z,65.30
2019-05-19T04:09:25.343Z,65.60
2019-05-19T04:11:53.025Z,65.60
2019-05-19T04:14:20.714Z,65.80
2019-05-19T04:16:50.502Z,65.80
2019-05-19T04:19:18.218Z,66.00
2019-05-19T04:21:49.095Z,65.90
2019-05-19T04:24:16.010Z,66.00
2019-05-19T04:26:43.792Z,65.90
2019-05-19T04:29:11.544Z,65.80
2019-05-19T04:31:39.359Z,65.80
2019-05-19T04:34:07.384Z,66.00
2019-05-19T04:36:35.998Z,66.00
2019-05-19T04:39:06.296Z,66.20
2019-05-19T04:41:33.926Z,66.20
2019-05-19T04:44:03.338Z,66.20
2019-05-19T04:46:31.092Z,66.40
2019-05-19T04:49:00.615Z,66.30
2019-05-19T04:51:33.312Z,66.40
2019-05-19T04:54:01.119Z,66.40
2019-05-19T04:56:32.692Z,66.40
2019-05-19T04:59:03.553Z,66.30
2019-05-19T05:01:31.323Z,66.20
2019-05-19T05:03:59.134Z,66.30
2019-05-19T05:06:29.145Z,66.30
2019-05-19T05:08:56.910Z,66.50
2019-05-19T05:11:24.520Z,66.70
2019-05-19T05:13:52.218Z,66.80
2019-05-19T05:16:20.015Z,67.00
2019-05-19T05:18:48.884Z,66.90
2019-05-19T05:21:18.529Z,67.20
2019-05-19T05:23:46.277Z,67.30
2019-05-19T05:26:15.704Z,67.60
2019-05-19T05:28:43.312Z,67.80
2019-05-19T05:31:11.324Z,68.00
2019-05-19T05:33:39.244Z,68.20
2019-05-19T05:36:10.031Z,68.40
2019-05-19T05:38:38.396Z,68.60
2019-05-19T05:41:06.178Z,68.60
2019-05-19T05:43:33.872Z,68.60
2019-05-19T05:46:01.642Z,68.50
2019-05-19T05:48:31.447Z,68.40
2019-05-19T05:51:01.088Z,68.30
2019-05-19T05:53:28.922Z,68.40
2019-05-19T05:55:56.713Z,68.40
2019-05-19T05:58:24.542Z,68.60
2019-05-19T06:00:53.995Z,68.80
2019-05-19T06:03:21.738Z,68.70
2019-05-19T06:05:49.418Z,68.70
2019-05-19T06:08:17.184Z,68.90
2019-05-19T06:10:44.922Z,69.20
2019-05-19T06:13:12.567Z,69.30
2019-05-19T06:15:40.291Z,69.60
2019-05-19T06:18:08.064Z,69.60
2019-05-19T06:20:36.878Z,69.70
2019-05-19T06:23:04.561Z,69.60
2019-05-19T06:25:34.268Z,69.80
2019-05-19T06:28:02.114Z,69.60
2019-05-19T06:30:29.799Z,69.80
2019-05-19T06:32:59.123Z,69.80
2019-05-19T06:35:26.831Z,70.20
2019-05-19T06:37:54.660Z,70.10
2019-05-19T06:40:22.427Z,70.40
2019-05-19T06:42:50.412Z,70.80
2019-05-19T06:45:18.338Z,70.70
2019-05-19T06:47:46.093Z,70.70
2019-05-19T06:50:14.118Z,70.50
2019-05-19T06:52:41.853Z,70.60
2019-05-19T06:55:09.919Z,71.30
2019-05-19T06:57:39.530Z,71.70
2019-05-19T07:00:07.855Z,72.00
2019-05-19T07:02:35.771Z,72.10
2019-05-19T07:05:04.399Z,72.20
2019-05-19T07:07:32.429Z,72.10
2019-05-19T07:10:00.277Z,73.50
2019-05-19T07:12:29.753Z,72.80
2019-05-19T07:14:57.727Z,72.30
2019-05-19T07:17:25.618Z,72.40
2019-05-19T07:19:53.390Z,72.70
2019-05-19T07:22:21.238Z,72.60
2019-05-19T07:24:49.148Z,72.50
2019-05-19T07:27:16.866Z,72.60
2019-05-19T07:29:44.923Z,72.50
2019-05-19T07:32:12.805Z,72.60
2019-05-19T07:34:40.756Z,72.30
2019-05-19T07:37:08.636Z,72.30
2019-05-19T07:39:37.710Z,72.10
2019-05-19T07:42:05.535Z,71.50
2019-05-19T07:44:35.381Z,72.00
2019-05-19T07:47:03.104Z,71.00
2019-05-19T07:49:30.917Z,70.60
2019-05-19T07:51:58.836Z,70.30
2019-05-19T07:54:26.548Z,69.60
2019-05-19T07:56:54.277Z,69.40
2019-05-19T07:59:22.150Z,68.00
2019-05-19T08:01:50.235Z,67.80
2019-05-19T08:04:23.860Z,67.90
2019-05-19T08:06:54.248Z,67.80
2019-05-19T08:09:21.894Z,68.00
2019-05-19T08:11:49.627Z,67.90
2019-05-19T08:14:17.353Z,67.00
2019-05-19T08:16:46.735Z,66.70
2019-05-19T08:19:14.481Z,66.70
2019-05-19T08:21:42.228Z,65.90
2019-05-19T08:24:09.913Z,66.70
2019-05-19T08:26:37.565Z,65.70
2019-05-19T08:29:05.249Z,64.60
2019-05-19T08:31:32.992Z,64.20
2019-05-19T08:34:00.668Z,64.30
2019-05-19T08:36:28.342Z,64.20
2019-05-19T08:38:56.128Z,64.30
2019-05-19T08:41:24.598Z,64.80
2019-05-19T08:43:55.884Z,64.60
2019-05-19T08:46:23.598Z,63.80
2019-05-19T08:48:51.327Z,63.30
2019-05-19T08:51:22.814Z,62.90
2019-05-19T08:53:50.582Z,62.90
2019-05-19T08:56:18.215Z,62.60
2019-05-19T08:58:45.860Z,61.80
2019-05-19T09:01:13.491Z,61.70
2019-05-19T09:03:54.316Z,61.30
2019-05-19T09:06:21.958Z,60.10
2019-05-19T09:08:49.694Z,60.00
2019-05-19T09:11:18.413Z,60.80
2019-05-19T09:13:46.065Z,61.90
2019-05-19T09:16:13.734Z,61.20
2019-05-19T09:18:43.181Z,60.10
2019-05-19T09:21:10.827Z,60.00
2019-05-19T09:23:38.594Z,59.00
2019-05-19T09:26:06.259Z,59.90
2019-05-19T09:28:33.936Z,59.50
2019-05-19T09:31:01.895Z,58.90
2019-05-19T09:33:29.674Z,57.70
2019-05-19T09:35:57.350Z,57.80
2019-05-19T09:38:25.967Z,58.70
2019-05-19T09:40:53.636Z,58.50
2019-05-19T09:43:21.265Z,57.80
2019-05-19T09:45:48.958Z,58.60
2019-05-19T09:48:18.370Z,58.50
2019-05-19T09:50:46.127Z,59.00
2019-05-19T09:53:13.669Z,59.00
2019-05-19T09:55:41.376Z,57.70
2019-05-19T09:58:15.677Z,56.90
2019-05-19T10:00:41.412Z,56.50
2019-05-19T10:03:09.133Z,57.10
2019-05-19T10:05:36.847Z,56.90
2019-05-19T10:08:04.596Z,57.20
2019-05-19T10:11:00.459Z,57.20
2019-05-19T10:13:28.216Z,56.00
2019-05-19T10:15:55.869Z,56.70
2019-05-19T10:18:23.591Z,58.40
2019-05-19T10:20:52.544Z,58.30
2019-05-19T10:23:20.463Z,58.60
2019-05-19T10:25:48.098Z,58.90
2019-05-19T10:28:15.801Z,57.50
2019-05-19T10:30:43.573Z,56.80
2019-05-19T10:33:11.311Z,56.00
2019-05-19T10:35:39.055Z,57.10
2019-05-19T10:38:07.777Z,56.60
2019-05-19T10:40:35.501Z,56.10
2019-05-19T10:43:03.239Z,56.90
2019-05-19T10:45:32.192Z,58.50
2019-05-19T10:47:59.929Z,58.10
2019-05-19T10:50:27.605Z,57.50
2019-05-19T10:52:55.304Z,57.70
2019-05-19T10:55:35.390Z,57.90
2019-05-19T10:57:52.549Z,55.80
2019-05-19T11:00:20.402Z,55.70
2019-05-19T11:02:48.175Z,57.50
2019-05-19T11:05:17.021Z,57.60
2019-05-19T11:07:44.709Z,56.70
2019-05-19T11:10:12.370Z,57.40
2019-05-19T11:12:40.062Z,55.40
2019-05-19T11:15:09.401Z,57.10
2019-05-19T11:17:37.289Z,56.70
2019-05-19T11:20:05.523Z,55.70
2019-05-19T11:22:33.190Z,55.20
2019-05-19T11:27:57.544Z,55.30
2019-05-19T11:30:31.139Z,54.20
2019-05-19T11:32:59.126Z,54.30
2019-05-19T11:35:26.896Z,54.00
2019-05-19T11:37:54.659Z,53.80
2019-05-19T11:40:22.377Z,53.50
2019-05-19T11:42:50.049Z,53.10
2019-05-19T11:45:17.939Z,53.00
2019-05-19T11:47:45.581Z,52.50
2019-05-19T11:50:13.375Z,52.60
2019-05-19T11:52:41.089Z,52.60
2019-05-19T11:55:08.855Z,52.80
2019-05-19T11:57:36.605Z,52.90
2019-05-19T12:00:04.886Z,52.40
2019-05-19T12:02:32.757Z,52.00
2019-05-19T12:05:00.430Z,52.10
2019-05-19T12:07:28.205Z,51.60
2019-05-19T12:09:55.965Z,51.20
2019-05-19T12:12:23.606Z,51.40
2019-05-19T12:14:51.416Z,52.00
2019-05-19T12:17:20.870Z,52.50
2019-05-19T12:19:48.777Z,52.80
2019-05-19T12:22:16.542Z,52.20
2019-05-19T12:24:44.179Z,52.60
2019-05-19T12:27:11.792Z,52.20
2019-05-19T12:29:40.564Z,51.90
2019-05-19T12:32:08.204Z,51.90
2019-05-19T12:34:35.888Z,50.60
2019-05-19T12:37:04.791Z,51.10
2019-05-19T12:39:32.496Z,50.30
2019-05-19T12:42:00.651Z,50.90
2019-05-19T12:44:28.271Z,50.80
2019-05-19T12:46:56.087Z,53.40
2019-05-19T12:49:23.754Z,52.20
2019-05-19T12:51:51.400Z,52.60
2019-05-19T12:54:19.204Z,53.50
2019-05-19T12:56:48.043Z,52.50
2019-05-19T12:59:15.731Z,51.70
2019-05-19T13:01:43.821Z,51.70
2019-05-19T13:04:11.586Z,50.00
2019-05-19T13:06:39.225Z,49.40
2019-05-19T13:09:07.746Z,50.70
2019-05-19T13:11:35.627Z,49.70
2019-05-19T13:14:03.477Z,50.10
2019-05-19T13:16:32.275Z,50.10
2019-05-19T13:19:00.006Z,50.60
2019-05-19T13:21:27.703Z,49.40
2019-05-19T13:23:55.941Z,49.90
2019-05-19T13:26:23.712Z,49.10
2019-05-19T13:28:51.353Z,48.80
2019-05-19T13:31:19.144Z,48.30
2019-05-19T13:33:46.796Z,48.20
2019-05-19T13:36:16.381Z,48.80
2019-05-19T13:38:43.891Z,49.30
2019-05-19T13:41:11.551Z,49.80
2019-05-19T13:43:39.320Z,49.80
2019-05-19T13:46:06.978Z,49.30
2019-05-19T13:48:34.819Z,50.00
2019-05-19T13:51:02.477Z,49.90
2019-05-19T13:56:24.185Z,49.10
2019-05-19T13:58:51.973Z,49.20
2019-05-19T14:01:28.220Z,49.50
2019-05-19T14:03:52.000Z,50.10
2019-05-19T14:06:18.751Z,50.90
2019-05-19T14:08:46.459Z,49.60
2019-05-19T14:11:14.197Z,49.30
2019-05-19T14:13:41.950Z,48.70
2019-05-19T14:16:09.601Z,47.80
2019-05-19T14:18:37.238Z,48.50
2019-05-19T14:21:04.935Z,48.40
2019-05-19T14:23:32.601Z,48.20
2019-05-19T14:26:01.444Z,48.60
2019-05-19T14:28:29.075Z,49.50
2019-05-19T14:30:56.778Z,50.80
2019-05-19T14:33:24.454Z,50.70
2019-05-19T14:35:52.124Z,50.60
2019-05-19T14:38:19.875Z,50.50
2019-05-19T14:40:47.518Z,50.00
2019-05-19T14:43:16.167Z,49.20
2019-05-19T14:45:43.803Z,49.80
2019-05-19T14:48:11.492Z,49.80
2019-05-19T14:50:39.749Z,49.10
2019-05-19T14:53:07.595Z,48.80
2019-05-19T14:55:37.058Z,48.20
2019-05-19T14:58:04.815Z,48.00
2019-05-19T15:00:34.349Z,48.50
2019-05-19T15:03:03.004Z,48.00
2019-05-19T15:05:30.642Z,46.30
2019-05-19T15:07:58.348Z,46.60
2019-05-19T15:10:25.973Z,47.30
2019-05-19T15:12:55.488Z,47.70
2019-05-19T15:15:23.166Z,48.00
2019-05-19T15:17:50.800Z,48.40
2019-05-19T15:20:18.511Z,48.60
2019-05-19T15:22:46.162Z,48.60
2019-05-19T15:25:13.876Z,48.70
2019-05-19T15:27:41.482Z,48.30
2019-05-19T15:30:13.578Z,48.60
2019-05-19T15:32:39.151Z,48.40
2019-05-19T15:35:07.087Z,48.70
2019-05-19T15:37:34.747Z,48.90
2019-05-19T15:40:03.986Z,48.40
2019-05-19T15:42:31.642Z,48.70
2019-05-19T15:44:59.263Z,48.70
2019-05-19T15:47:27.019Z,48.80
2019-05-19T15:49:54.708Z,49.10
2019-05-19T15:52:22.367Z,49.20
2019-05-19T15:54:50.020Z,49.30
2019-05-19T15:57:17.740Z,49.20
2019-05-19T15:59:45.372Z,49.50
2019-05-19T16:02:13.097Z,49.70
2019-05-19T16:04:40.798Z,49.80
2019-05-19T16:07:08.484Z,49.80
2019-05-19T16:09:36.236Z,51.00
2019-05-19T16:12:04.422Z,50.00
2019-05-19T16:14:32.401Z,50.20
2019-05-19T16:17:00.155Z,50.40
2019-05-19T16:19:27.876Z,50.40
2019-05-19T16:21:55.723Z,50.20
2019-05-19T16:24:23.622Z,50.60
2019-05-19T16:26:51.356Z,50.40
2019-05-19T16:29:19.112Z,50.80
2019-05-19T16:31:48.294Z,50.80
2019-05-19T16:34:16.109Z,51.10
2019-05-19T16:36:45.838Z,51.20
2019-05-19T16:39:13.646Z,51.00
2019-05-19T16:41:41.514Z,50.90
2019-05-19T16:44:10.699Z,50.90
2019-05-19T16:46:38.520Z,51.20
2019-05-19T16:49:07.241Z,51.40
2019-05-19T16:51:35.079Z,51.70
2019-05-19T16:54:07.104Z,51.60
2019-05-19T16:56:34.828Z,51.70
2019-05-19T16:59:02.519Z,51.70
2019-05-19T17:01:30.269Z,51.90
2019-05-19T17:03:58.067Z,52.30
2019-05-19T17:06:25.731Z,52.10
2019-05-19T17:08:53.544Z,52.40
2019-05-19T17:11:24.532Z,53.50
2019-05-19T17:13:52.335Z,53.60
2019-05-19T17:16:20.410Z,53.40
2019-05-19T17:18:48.184Z,53.90
2019-05-19T17:21:15.912Z,54.10
2019-05-19T17:23:45.129Z,54.50
2019-05-19T17:26:13.007Z,54.30
2019-05-19T17:28:40.946Z,54.30
2019-05-19T17:31:08.670Z,54.30
2019-05-19T17:33:36.463Z,54.60
2019-05-19T17:36:04.343Z,54.40
2019-05-19T17:38:32.217Z,54.50
2019-05-19T17:40:59.992Z,54.80
2019-05-19T17:43:27.700Z,54.90
2019-05-19T17:45:56.573Z,55.30
2019-05-19T17:48:27.274Z,55.30
2019-05-19T17:50:53.801Z,55.60
2019-05-19T17:53:21.538Z,56.00
2019-05-19T17:55:51.496Z,56.30
2019-05-19T17:58:19.324Z,56.70
2019-05-19T18:00:47.795Z,57.20
2019-05-19T18:03:15.556Z,57.30
2019-05-19T18:05:43.203Z,57.50
2019-05-19T18:08:10.907Z,57.30
2019-05-19T18:10:38.763Z,57.40
2019-05-19T18:13:08.273Z,57.40
2019-05-19T18:15:36.658Z,57.40
2019-05-19T18:18:06.224Z,57.30
2019-05-19T18:20:34.265Z,57.30
2019-05-19T18:23:03.067Z,57.60
2019-05-19T18:25:31.079Z,57.90
2019-05-19T18:27:58.879Z,58.00
2019-05-19T18:30:28.177Z,58.80
2019-05-19T18:32:55.968Z,58.60
2019-05-19T18:35:24.263Z,58.10
2019-05-19T18:37:53.160Z,58.00
2019-05-19T18:40:20.987Z,58.40
2019-05-19T18:42:49.133Z,59.20
2019-05-19T18:45:16.980Z,59.00
2019-05-19T18:47:45.132Z,59.10
2019-05-19T18:50:13.533Z,58.90
2019-05-19T18:52:42.818Z,58.90
2019-05-19T18:55:11.165Z,58.90
2019-05-19T18:57:39.312Z,59.00
2019-05-19T19:00:08.488Z,59.10
2019-05-19T19:02:36.709Z,59.10
2019-05-19T19:05:05.532Z,59.20
2019-05-19T19:07:51.517Z,59.70
2019-05-19T19:10:19.498Z,59.90
2019-05-19T19:12:48.754Z,60.20
2019-05-19T19:15:16.821Z,59.80
2019-05-19T19:17:44.633Z,60.00
2019-05-19T19:20:12.770Z,60.00
2019-05-19T19:22:40.639Z,60.10
2019-05-19T19:25:08.624Z,60.30
2019-05-19T19:27:36.815Z,60.40
2019-05-19T19:30:04.962Z,60.40
2019-05-19T19:32:32.759Z,60.50
2019-05-19T19:35:01.675Z,60.50
2019-05-19T19:37:29.800Z,60.90
2019-05-19T19:39:57.619Z,61.00
2019-05-19T19:42:26.190Z,60.80
2019-05-19T19:44:54.552Z,60.70
2019-05-19T19:47:25.726Z,60.60
2019-05-19T19:49:53.616Z,60.70
2019-05-19T19:52:23.163Z,60.90
2019-05-19T19:54:51.008Z,60.90
2019-05-19T19:57:19.900Z,61.00
2019-05-19T19:59:48.767Z,61.30
2019-05-19T20:02:17.677Z,61.20
2019-05-19T20:04:45.595Z,61.30
2019-05-19T20:07:13.428Z,61.60
2019-05-19T20:09:41.165Z,61.40
2019-05-19T20:12:09.002Z,61.60
2019-05-19T20:14:38.570Z,61.90
2019-05-19T20:17:06.395Z,62.10
2019-05-19T20:19:34.356Z,62.30
2019-05-19T20:22:05.071Z,62.10
2019-05-19T20:24:32.928Z,62.30
2019-05-19T20:27:00.738Z,62.20
2019-05-19T20:29:28.364Z,62.10
2019-05-19T20:31:56.276Z,62.50
2019-05-19T20:34:23.896Z,62.20
2019-05-19T20:36:51.572Z,62.20
2019-05-19T20:39:19.343Z,62.00
2019-05-19T20:41:46.992Z,62.00
2019-05-19T20:44:14.650Z,62.00
2019-05-19T20:46:42.318Z,61.90
2019-05-19T20:49:10.097Z,61.80
2019-05-19T20:51:37.851Z,61.90
2019-05-19T20:54:05.486Z,62.00
2019-05-19T20:56:33.131Z,62.10
2019-05-19T20:59:01.056Z,62.10
2019-05-19T21:01:29.823Z,62.40
2019-05-19T21:03:57.500Z,62.30
2019-05-19T21:06:25.140Z,62.40
2019-05-19T21:08:54.683Z,62.70
2019-05-19T21:11:22.325Z,62.70
2019-05-19T21:13:49.978Z,62.50
2019-05-19T21:16:17.666Z,62.30
2019-05-19T21:19:03.981Z,62.50
2019-05-19T21:21:31.605Z,62.60
2019-05-19T21:24:01.153Z,62.50
2019-05-19T21:26:28.805Z,62.40
2019-05-19T21:28:56.503Z,61.30
2019-05-19T21:31:24.161Z,61.10
2019-05-19T21:33:52.933Z,61.40
2019-05-19T21:36:20.641Z,61.70
2019-05-19T21:38:48.399Z,62.10
2019-05-19T21:41:17.169Z,62.10
2019-05-19T21:43:44.799Z,62.10
2019-05-19T21:46:12.459Z,62.50
2019-05-19T21:48:40.202Z,63.10
2019-05-19T21:51:07.993Z,62.80
2019-05-19T21:53:35.705Z,62.90
2019-05-19T21:56:03.258Z,63.00
2019-05-19T21:58:30.899Z,63.00
2019-05-19T22:00:58.593Z,63.30
2019-05-19T22:03:26.284Z,63.20
2019-05-19T22:05:53.953Z,63.20
2019-05-19T22:08:24.500Z,63.20
2019-05-19T22:10:52.163Z,63.20
2019-05-19T22:13:19.822Z,63.30
2019-05-19T22:15:47.483Z,63.30
2019-05-19T22:18:16.238Z,63.30
2019-05-19T22:20:43.986Z,63.60
2019-05-19T22:23:11.705Z,63.70
2019-05-19T22:25:41.138Z,63.30
2019-05-19T22:28:09.085Z,63.20
2019-05-19T22:30:36.695Z,63.10
2019-05-19T22:33:04.356Z,62.80
2019-05-19T22:35:32.003Z,62.60
2019-05-19T22:37:59.697Z,62.40
2019-05-19T22:40:27.450Z,62.50
2019-05-19T22:42:55.094Z,62.40
2019-05-19T22:45:22.755Z,62.40
2019-05-19T22:47:50.407Z,62.40
2019-05-19T22:50:18.847Z,62.60
2019-05-19T22:52:46.743Z,63.00
2019-05-19T22:55:14.614Z,63.20
2019-05-19T22:57:42.263Z,63.20
2019-05-19T23:00:11.085Z,63.20
2019-05-19T23:02:39.045Z,63.40
2019-05-19T23:05:07.312Z,63.40
2019-05-19T23:07:34.958Z,63.60
2019-05-19T23:10:04.387Z,63.70
2019-05-19T23:12:32.053Z,64.00
2019-05-19T23:14:59.748Z,63.90
2019-05-19T23:17:27.450Z,64.30
2019-05-19T23:19:55.111Z,63.60
2019-05-19T23:22:23.860Z,64.20
2019-05-19T23:24:51.536Z,64.00
2019-05-19T23:27:19.300Z,64.20
2019-05-19T23:29:47.139Z,64.20
2019-05-19T23:32:14.829Z,64.30
2019-05-19T23:34:42.623Z,64.50
2019-05-19T23:37:10.229Z,64.80
2019-05-19T23:39:37.881Z,64.80
2019-05-19T23:42:05.547Z,64.60
2019-05-19T23:44:33.196Z,64.40
2019-05-19T23:47:00.911Z,64.50
2019-05-19T23:49:28.677Z,64.40
2019-05-19T23:51:56.424Z,64.40
2019-05-19T23:54:25.196Z,64.40
2019-05-19T23:56:52.784Z,64.40
2019-05-19T23:59:20.558Z,64.40
